Time;durP1;ratioP1;P1;durP2;ratioP2;P2;SDS_P1;SDS_P2;PMS_P1;PMS_P2;Temp;Humidity;BMP_temperature;BMP_pressure;BME280_temperature;BME280_humidity;BME280_pressure;Samples;Min_cycle;Max_cycle;Signal;HPM_P1;HPM_P2
2022/12/09 00:01:38;;;;;;;3.65;1.50;;;18.50;53.80;;;;;;4910064;29;20044;-69
2022/12/09 00:04:04;;;;;;;3.33;1.67;;;18.50;53.70;;;;;;4911444;29;20048;-69
2022/12/09 00:06:30;;;;;;;3.47;1.90;;;18.40;53.60;;;;;;4912077;29;20047;-68
2022/12/09 00:08:56;;;;;;;3.13;1.60;;;18.40;53.60;;;;;;4896123;29;20051;-68
2022/12/09 00:11:23;;;;;;;2.97;1.30;;;18.40;53.60;;;;;;4910570;29;20185;-69
2022/12/09 00:13:54;;;;;;;4.07;1.77;;;18.40;53.60;;;;;;4911374;29;20257;-69
2022/12/09 00:16:21;;;;;;;4.65;1.67;;;18.40;53.60;;;;;;4912463;29;20048;-69
2022/12/09 00:18:47;;;;;;;3.28;1.50;;;18.40;53.50;;;;;;4912046;29;20076;-68
2022/12/09 00:21:22;;;;;;;3.67;1.60;;;18.40;53.60;;;;;;4912857;29;20067;-69
2022/12/09 00:23:49;;;;;;;3.05;1.60;;;18.40;53.50;;;;;;4910113;29;20640;-68
2022/12/09 00:26:16;;;;;;;3.13;1.80;;;18.40;53.50;;;;;;4911330;29;20064;-68
2022/12/09 00:28:42;;;;;;;2.83;1.60;;;18.40;53.50;;;;;;4910510;29;20089;-68
2022/12/09 00:31:13;;;;;;;2.75;1.55;;;18.40;53.50;;;;;;4878626;29;20523;-69
2022/12/09 00:33:39;;;;;;;2.80;1.65;;;18.40;53.40;;;;;;4912198;29;20051;-69
2022/12/09 00:36:07;;;;;;;4.68;1.95;;;18.40;53.40;;;;;;4911586;29;20048;-68
2022/12/09 00:38:33;;;;;;;2.72;1.60;;;18.40;53.40;;;;;;4912709;29;20048;-69
2022/12/09 00:40:59;;;;;;;2.50;1.73;;;18.40;53.30;;;;;;4911112;29;20052;-69
2022/12/09 00:43:24;;;;;;;3.30;1.65;;;18.40;53.30;;;;;;4894899;29;20451;-68
2022/12/09 00:45:50;;;;;;;2.30;1.50;;;18.30;53.30;;;;;;4895145;29;20071;-68
2022/12/09 00:48:15;;;;;;;2.90;1.40;;;18.30;53.20;;;;;;4911767;29;20163;-69
2022/12/09 00:50:41;;;;;;;2.38;1.60;;;18.30;53.20;;;;;;4893784;29;20704;-69
2022/12/09 00:53:07;;;;;;;2.17;1.48;;;18.40;53.20;;;;;;4910519;29;20404;-69
2022/12/09 00:55:32;;;;;;;3.47;1.67;;;18.30;53.20;;;;;;4910287;29;20064;-69
2022/12/09 00:57:58;;;;;;;2.33;1.45;;;18.30;53.10;;;;;;4909915;29;20051;-69
2022/12/09 01:00:23;;;;;;;4.03;1.38;;;18.30;53.10;;;;;;4908953;29;20040;-70
2022/12/09 01:02:49;;;;;;;2.55;1.50;;;18.30;53.10;;;;;;4894350;29;20059;-69
2022/12/09 01:05:14;;;;;;;1.85;1.33;;;18.30;53.10;;;;;;4894803;29;20115;-69
2022/12/09 01:07:40;;;;;;;2.00;1.50;;;18.30;53.10;;;;;;4893603;29;20534;-69
2022/12/09 01:10:06;;;;;;;2.30;1.40;;;18.30;53.10;;;;;;4911925;29;20046;-68
2022/12/09 01:12:33;;;;;;;2.28;1.33;;;18.30;53.00;;;;;;4890536;29;20056;-67
2022/12/09 01:14:58;;;;;;;2.03;1.27;;;18.30;53.10;;;;;;4909117;29;20047;-67
2022/12/09 01:17:24;;;;;;;3.95;1.30;;;18.30;53.20;;;;;;4911102;29;20040;-67
2022/12/09 01:19:50;;;;;;;1.75;1.20;;;18.30;53.20;;;;;;4909696;29;20044;-68
2022/12/09 01:22:16;;;;;;;3.17;1.10;;;18.30;53.20;;;;;;4911686;29;20052;-68
2022/12/09 01:24:42;;;;;;;3.33;1.40;;;18.30;53.20;;;;;;4909985;29;20048;-67
2022/12/09 01:27:10;;;;;;;;;;;18.30;53.20;;;;;;4912689;29;20123;-68
2022/12/09 01:29:36;;;;;;;2.85;1.40;;;18.30;53.20;;;;;;4889694;29;19961;-67
2022/12/09 01:32:01;;;;;;;3.28;1.20;;;18.30;53.00;;;;;;4909139;29;20095;-67
2022/12/09 01:34:27;;;;;;;2.35;1.48;;;18.30;53.00;;;;;;4910018;29;20134;-67
2022/12/09 01:36:52;;;;;;;2.17;1.20;;;18.40;53.10;;;;;;4893493;29;20060;-67
2022/12/09 01:39:18;;;;;;;2.45;1.20;;;18.30;53.80;;;;;;4911624;29;20048;-67
2022/12/09 01:41:44;;;;;;;1.83;1.38;;;18.30;53.80;;;;;;4909141;29;20123;-68
2022/12/09 01:44:23;;;;;;;1.92;1.20;;;18.30;53.00;;;;;;4911740;29;20409;-67
2022/12/09 01:46:53;;;;;;;2.90;1.35;;;18.40;53.10;;;;;;4909924;29;20527;-67
2022/12/09 01:49:41;;;;;;;2.20;1.20;;;18.30;53.00;;;;;;4911735;29;20456;-68
2022/12/09 01:52:18;;;;;;;1.85;1.17;;;18.30;53.00;;;;;;4893476;29;20059;-68
2022/12/09 01:54:45;;;;;;;4.75;1.30;;;18.30;53.70;;;;;;4893031;29;20054;-67
2022/12/09 01:57:11;;;;;;;2.10;1.20;;;18.30;53.00;;;;;;4877972;29;20051;-68
2022/12/09 01:59:37;;;;;;;1.60;0.88;;;18.30;53.10;;;;;;4892863;29;20044;-68
2022/12/09 02:02:07;;;;;;;6.28;1.33;;;18.30;53.00;;;;;;4910276;29;20658;-67
2022/12/09 02:04:38;;;;;;;1.85;1.10;;;18.30;53.00;;;;;;4910073;29;20048;-68
2022/12/09 02:07:09;;;;;;;1.63;1.13;;;18.30;53.00;;;;;;4909914;29;20040;-68
2022/12/09 02:09:36;;;;;;;1.85;1.20;;;18.20;52.90;;;;;;4910178;29;20059;-69
2022/12/09 02:12:13;;;;;;;4.90;1.25;;;18.30;53.00;;;;;;4907905;29;20110;-69
2022/12/09 02:15:10;;;;;;;3.60;1.20;;;18.20;52.90;;;;;;4911192;29;20048;-68
2022/12/09 02:17:44;;;;;;;2.03;1.13;;;18.20;52.90;;;;;;4876109;29;20142;-68
2022/12/09 02:20:20;;;;;;;1.83;0.93;;;18.30;53.10;;;;;;4903087;29;20130;-68
2022/12/09 02:22:54;;;;;;;1.40;0.90;;;18.20;52.80;;;;;;4898004;29;20036;-69
2022/12/09 02:25:39;;;;;;;4.70;1.20;;;18.20;52.80;;;;;;4908916;29;20615;-68
2022/12/09 02:28:14;;;;;;;1.60;1.00;;;18.20;52.80;;;;;;4898529;29;20400;-68
2022/12/09 02:31:08;;;;;;;2.72;1.05;;;18.20;52.80;;;;;;4908560;29;20063;-68
2022/12/09 02:33:58;;;;;;;2.58;1.00;;;18.20;52.70;;;;;;4909843;29;20791;-68
2022/12/09 02:36:29;;;;;;;1.50;0.90;;;18.20;52.70;;;;;;4903550;29;20710;-68
2022/12/09 02:38:57;;;;;;;1.90;1.00;;;18.20;52.80;;;;;;4909980;29;20052;-68
2022/12/09 02:41:27;;;;;;;1.90;1.08;;;18.20;52.70;;;;;;4908717;29;20127;-68
2022/12/09 02:44:08;;;;;;;1.70;1.05;;;18.20;52.70;;;;;;4909891;29;20040;-68
2022/12/09 02:46:35;;;;;;;2.58;1.00;;;18.20;52.70;;;;;;4903627;29;20076;-67
2022/12/09 02:49:01;;;;;;;1.45;0.98;;;18.20;52.70;;;;;;4910619;29;20036;-68
2022/12/09 02:51:31;;;;;;;1.30;0.80;;;18.20;52.70;;;;;;4908479;29;20070;-67
2022/12/09 02:54:03;;;;;;;1.17;0.73;;;18.20;52.60;;;;;;4893106;29;20048;-68
2022/12/09 02:56:31;;;;;;;1.83;0.70;;;18.20;52.60;;;;;;4910827;29;20744;-68
2022/12/09 02:58:56;;;;;;;1.70;1.05;;;18.20;52.60;;;;;;4891802;29;20542;-68
2022/12/09 03:01:35;;;;;;;1.63;0.90;;;18.10;52.60;;;;;;4897304;29;20048;-68
2022/12/09 03:04:01;;;;;;;0.98;0.80;;;18.20;52.60;;;;;;4895631;29;20127;-68
2022/12/09 03:06:34;;;;;;;1.40;1.00;;;18.20;52.60;;;;;;4908996;29;20060;-68
2022/12/09 03:09:15;;;;;;;1.30;0.82;;;18.20;52.60;;;;;;4892778;29;20072;-68
2022/12/09 03:11:41;;;;;;;1.80;0.85;;;18.20;52.50;;;;;;4891602;29;20606;-68
2022/12/09 03:14:18;;;;;;;2.03;1.00;;;18.10;52.50;;;;;;4875775;29;20044;-67
2022/12/09 03:17:21;;;;;;;1.00;0.80;;;18.20;52.50;;;;;;4907632;29;20051;-68
2022/12/09 03:19:51;;;;;;;1.08;0.70;;;18.20;52.50;;;;;;4899876;29;20083;-68
2022/12/09 03:22:20;;;;;;;1.75;1.00;;;18.20;52.50;;;;;;4908304;29;20040;-68
2022/12/09 03:25:07;;;;;;;1.42;0.90;;;18.20;52.50;;;;;;4911361;29;20063;-68
2022/12/09 03:27:51;;;;;;;1.42;0.63;;;18.10;52.30;;;;;;4910669;29;20512;-67
2022/12/09 03:30:18;;;;;;;0.90;0.70;;;18.20;52.50;;;;;;4912315;29;20078;-67
2022/12/09 03:32:45;;;;;;;1.67;0.80;;;18.20;52.40;;;;;;4912625;29;20052;-68
2022/12/09 03:35:17;;;;;;;1.23;0.70;;;18.20;52.30;;;;;;4901298;29;20075;-68
2022/12/09 03:37:44;;;;;;;1.77;0.80;;;18.20;52.30;;;;;;4890106;29;20052;-68
2022/12/09 03:40:14;;;;;;;1.30;0.70;;;18.20;52.30;;;;;;4896144;29;20052;-68
2022/12/09 03:42:48;;;;;;;1.10;0.70;;;18.20;52.30;;;;;;4909183;29;20543;-67
2022/12/09 03:45:16;;;;;;;0.93;0.75;;;18.20;52.30;;;;;;4912918;29;20048;-68
2022/12/09 03:47:42;;;;;;;1.23;0.80;;;18.20;52.30;;;;;;4905608;29;20068;-68
2022/12/09 03:50:08;;;;;;;1.35;0.80;;;18.20;52.20;;;;;;4913575;29;20107;-68
2022/12/09 03:52:43;;;;;;;1.30;0.88;;;18.20;52.20;;;;;;4911478;29;20044;-69
2022/12/09 03:55:36;;;;;;;0.90;0.70;;;18.20;52.20;;;;;;4911732;29;20547;-68
2022/12/09 03:58:05;;;;;;;1.40;0.73;;;18.20;52.20;;;;;;4912221;29;20091;-68
2022/12/09 04:00:34;;;;;;;1.67;0.85;;;18.20;52.20;;;;;;4910541;29;20059;-68
2022/12/09 04:02:59;;;;;;;2.13;0.75;;;18.20;52.20;;;;;;4912272;29;20520;-68
2022/12/09 04:05:25;;;;;;;0.90;0.63;;;18.20;52.20;;;;;;4911714;29;20147;-68
2022/12/09 04:07:53;;;;;;;;;;;18.10;52.10;;;;;;4912379;29;20044;-68
2022/12/09 04:10:19;;;;;;;1.20;0.70;;;18.20;52.10;;;;;;4913211;29;19927;-68
2022/12/09 04:12:44;;;;;;;2.22;0.77;;;18.20;52.10;;;;;;4910647;29;20032;-68
2022/12/09 04:15:10;;;;;;;1.27;0.70;;;18.10;52.70;;;;;;4912851;29;20135;-68
2022/12/09 04:17:35;;;;;;;1.40;0.90;;;18.10;52.00;;;;;;4910917;29;20074;-68
2022/12/09 04:20:02;;;;;;;0.77;0.60;;;18.10;52.10;;;;;;4911498;29;20205;-68
2022/12/09 04:22:28;;;;;;;1.13;0.80;;;18.10;52.00;;;;;;4893606;29;20044;-67
2022/12/09 04:24:54;;;;;;;0.98;0.80;;;18.10;51.90;;;;;;4907049;29;20428;-68
2022/12/09 04:27:19;;;;;;;1.02;0.60;;;18.10;51.90;;;;;;4907706;29;20068;-68
2022/12/09 04:29:46;;;;;;;1.63;0.70;;;18.10;51.90;;;;;;4911355;29;20424;-68
2022/12/09 04:32:12;;;;;;;1.08;0.80;;;18.10;51.90;;;;;;4912487;29;20040;-67
2022/12/09 04:34:39;;;;;;;1.00;0.80;;;18.10;52.70;;;;;;4907793;29;20496;-68
2022/12/09 04:37:04;;;;;;;1.48;0.77;;;18.10;51.90;;;;;;4902856;29;20095;-67
2022/12/09 04:39:30;;;;;;;1.15;0.80;;;18.10;51.80;;;;;;4911609;29;20306;-69
2022/12/09 04:41:56;;;;;;;2.88;0.77;;;18.10;51.80;;;;;;4894072;29;20048;-68
2022/12/09 04:44:21;;;;;;;1.10;0.63;;;18.10;51.80;;;;;;4911717;29;20063;-69
2022/12/09 04:46:47;;;;;;;1.10;0.77;;;18.10;51.80;;;;;;4911687;29;20535;-66
2022/12/09 04:49:12;;;;;;;1.33;0.60;;;18.10;51.80;;;;;;4908391;29;20032;-67
2022/12/09 04:51:38;;;;;;;1.70;0.70;;;18.10;51.80;;;;;;4922278;29;20048;-67
2022/12/09 04:54:03;;;;;;;1.95;0.80;;;18.10;51.80;;;;;;4893200;29;20515;-67
2022/12/09 04:56:29;;;;;;;1.10;0.90;;;18.10;51.80;;;;;;4909445;29;20127;-67
2022/12/09 04:58:54;;;;;;;1.00;0.70;;;18.10;51.80;;;;;;4910635;29;20489;-68
2022/12/09 05:01:22;;;;;;;1.98;0.70;;;18.10;51.80;;;;;;4911156;29;20040;-68
2022/12/09 05:03:52;;;;;;;1.33;0.77;;;18.10;51.80;;;;;;4893073;29;20055;-67
2022/12/09 05:06:20;;;;;;;1.10;0.60;;;18.10;51.90;;;;;;4904855;29;20044;-67
2022/12/09 05:08:46;;;;;;;1.15;0.68;;;18.10;51.80;;;;;;4910624;29;20378;-68
2022/12/09 05:11:17;;;;;;;1.35;0.70;;;18.00;51.80;;;;;;4893559;29;20102;-67
2022/12/09 05:13:43;;;;;;;1.80;0.90;;;18.00;51.80;;;;;;4893950;29;20048;-68
2022/12/09 05:16:11;;;;;;;1.05;0.70;;;18.10;51.80;;;;;;4910208;29;20158;-68
2022/12/09 05:18:37;;;;;;;0.80;0.70;;;18.00;51.70;;;;;;4909600;29;20076;-68
2022/12/09 05:21:11;;;;;;;0.90;0.60;;;18.00;51.70;;;;;;4911948;29;20086;-68
2022/12/09 05:23:37;;;;;;;1.42;0.60;;;18.00;51.70;;;;;;4890385;29;20501;-67
2022/12/09 05:26:07;;;;;;;1.20;0.60;;;18.00;51.70;;;;;;4876681;29;20096;-68
2022/12/09 05:28:33;;;;;;;1.88;0.90;;;18.00;51.70;;;;;;4893548;29;20044;-68
2022/12/09 05:31:04;;;;;;;1.88;0.80;;;18.10;51.70;;;;;;4908105;29;20078;-67
2022/12/09 05:33:30;;;;;;;0.90;0.70;;;18.00;51.70;;;;;;4910318;29;20386;-68
2022/12/09 05:35:56;;;;;;;1.85;0.70;;;18.00;51.70;;;;;;4909592;29;20316;-69
2022/12/09 05:38:22;;;;;;;1.33;0.80;;;18.00;51.70;;;;;;4909653;29;20544;-68
2022/12/09 05:40:51;;;;;;;2.22;0.80;;;18.00;51.70;;;;;;4910441;29;20036;-68
2022/12/09 05:43:17;;;;;;;0.70;0.40;;;18.00;51.70;;;;;;4908452;29;20091;-68
2022/12/09 05:45:43;;;;;;;0.98;0.77;;;18.00;51.60;;;;;;4893782;29;20582;-68
2022/12/09 05:48:09;;;;;;;1.38;0.70;;;18.00;51.70;;;;;;4907348;29;20040;-68
2022/12/09 05:50:35;;;;;;;0.75;0.70;;;18.00;51.60;;;;;;4910546;29;20782;-68
2022/12/09 05:53:01;;;;;;;1.17;0.75;;;18.00;51.60;;;;;;4907454;29;20051;-68
2022/12/09 05:55:26;;;;;;;1.00;0.70;;;18.00;51.60;;;;;;4908404;29;20055;-68
2022/12/09 05:57:52;;;;;;;1.10;0.70;;;18.00;51.60;;;;;;4906591;29;20048;-68
2022/12/09 06:00:18;;;;;;;1.02;0.52;;;18.00;51.50;;;;;;4906976;29;20087;-67
2022/12/09 06:02:44;;;;;;;1.88;0.70;;;18.10;51.50;;;;;;4877556;29;20048;-67
2022/12/09 06:05:09;;;;;;;1.10;0.70;;;18.10;51.50;;;;;;4905647;29;20028;-68
2022/12/09 06:07:35;;;;;;;1.73;0.70;;;18.00;51.50;;;;;;4893768;29;20116;-69
2022/12/09 06:10:03;;;;;;;1.13;0.60;;;18.10;51.40;;;;;;4908280;29;20044;-69
2022/12/09 06:12:28;;;;;;;0.87;0.80;;;18.10;51.30;;;;;;4890963;29;20452;-69
2022/12/09 06:14:54;;;;;;;1.67;0.60;;;18.00;51.30;;;;;;4909220;29;20316;-67
2022/12/09 06:17:19;;;;;;;1.42;0.77;;;18.10;51.40;;;;;;4905507;29;20413;-68
2022/12/09 06:19:45;;;;;;;1.35;0.65;;;18.00;51.30;;;;;;4904842;29;20036;-68
2022/12/09 06:22:11;;;;;;;1.30;0.60;;;18.00;51.30;;;;;;4905905;29;20036;-68
2022/12/09 06:24:36;;;;;;;1.10;0.70;;;18.00;51.30;;;;;;4908432;29;20052;-68
2022/12/09 06:27:02;;;;;;;1.75;0.80;;;18.10;51.30;;;;;;4890249;29;20074;-68
2022/12/09 06:29:28;;;;;;;0.82;0.60;;;18.00;51.20;;;;;;4909536;29;20040;-68
2022/12/09 06:31:53;;;;;;;1.20;0.70;;;18.00;51.20;;;;;;4906289;29;20127;-68
2022/12/09 06:34:19;;;;;;;0.93;0.60;;;18.00;51.20;;;;;;4890697;29;20556;-67
2022/12/09 06:36:44;;;;;;;1.45;0.77;;;18.00;51.20;;;;;;4908552;29;20036;-68
2022/12/09 06:39:10;;;;;;;1.85;0.55;;;18.00;51.20;;;;;;4893004;29;20083;-68
2022/12/09 06:41:36;;;;;;;0.73;0.70;;;18.00;51.20;;;;;;4902672;29;20088;-68
2022/12/09 06:44:02;;;;;;;0.73;0.50;;;18.00;51.20;;;;;;4910632;29;20515;-68
2022/12/09 06:46:28;;;;;;;0.90;0.60;;;18.00;51.20;;;;;;4908662;29;20040;-68
2022/12/09 06:48:54;;;;;;;1.75;0.70;;;18.00;51.20;;;;;;4908531;29;20063;-68
2022/12/09 06:51:21;;;;;;;0.82;0.70;;;18.00;51.20;;;;;;4903827;29;20044;-66
2022/12/09 06:53:47;;;;;;;1.30;0.68;;;18.00;51.20;;;;;;4904248;29;20048;-65
2022/12/09 06:56:13;;;;;;;3.33;0.70;;;18.00;51.20;;;;;;4904277;29;20332;-66
2022/12/09 06:58:40;;;;;;;4.00;0.90;;;18.00;51.30;;;;;;4906862;29;20040;-66
2022/12/09 07:01:12;;;;;;;4.18;0.80;;;18.00;51.40;;;;;;4909795;29;20094;-66
2022/12/09 07:03:39;;;;;;;3.60;0.93;;;17.90;51.60;;;;;;4908246;29;20492;-67
2022/12/09 07:06:06;;;;;;;1.20;0.88;;;17.90;51.80;;;;;;4907426;29;20507;-68
2022/12/09 07:08:32;;;;;;;2.60;0.82;;;17.90;52.00;;;;;;4909003;29;20047;-67
2022/12/09 07:10:58;;;;;;;2.17;0.80;;;17.90;52.10;;;;;;4908489;29;20037;-68
2022/12/09 07:13:23;;;;;;;4.72;0.85;;;17.90;52.20;;;;;;4909842;29;20028;-67
2022/12/09 07:15:49;;;;;;;1.83;0.80;;;17.90;52.30;;;;;;4907912;29;20044;-67
2022/12/09 07:18:14;;;;;;;2.72;0.90;;;17.90;52.40;;;;;;4910544;29;20048;-67
2022/12/09 07:20:40;;;;;;;1.55;1.00;;;17.90;52.40;;;;;;4906881;29;20055;-66
2022/12/09 07:23:05;;;;;;;2.97;1.13;;;17.90;52.40;;;;;;4901853;29;20071;-67
2022/12/09 07:25:31;;;;;;;6.53;1.05;;;17.90;52.40;;;;;;4907017;29;20115;-69
2022/12/09 07:27:57;;;;;;;3.85;0.88;;;17.90;52.40;;;;;;4908110;29;20100;-68
2022/12/09 07:30:22;;;;;;;3.90;0.80;;;17.90;52.40;;;;;;4910141;29;20404;-67
2022/12/09 07:32:48;;;;;;;1.73;0.93;;;17.90;52.40;;;;;;4905839;29;20056;-67
2022/12/09 07:35:13;;;;;;;2.45;1.00;;;18.00;52.40;;;;;;4909701;29;20378;-69
2022/12/09 07:37:39;;;;;;;2.97;0.82;;;18.00;52.30;;;;;;4909227;29;20047;-67
2022/12/09 07:40:05;;;;;;;1.88;0.73;;;18.00;52.30;;;;;;4910459;29;20040;-67
2022/12/09 07:42:31;;;;;;;1.10;0.80;;;18.00;52.20;;;;;;4909382;29;20079;-67
2022/12/09 07:44:56;;;;;;;2.60;1.00;;;18.10;52.20;;;;;;4903589;29;20468;-66
2022/12/09 07:47:22;;;;;;;3.70;1.00;;;18.10;52.20;;;;;;4891853;29;20075;-67
2022/12/09 07:49:47;;;;;;;1.23;0.90;;;18.10;52.30;;;;;;4907964;29;20062;-65
2022/12/09 07:52:13;;;;;;;3.30;1.25;;;18.10;52.20;;;;;;4889364;29;20052;-67
2022/12/09 07:54:38;;;;;;;2.17;1.08;;;18.10;52.90;;;;;;4910725;29;20044;-68
2022/12/09 07:57:04;;;;;;;1.13;1.00;;;18.10;52.00;;;;;;4912015;29;20055;-69
2022/12/09 07:59:30;;;;;;;4.38;1.10;;;18.20;52.00;;;;;;4911378;29;20040;-68
2022/12/09 08:01:55;;;;;;;4.03;0.90;;;18.20;52.00;;;;;;4910982;29;20063;-70
2022/12/09 08:04:21;;;;;;;3.33;1.90;;;18.20;51.90;;;;;;4910456;29;20050;-69
2022/12/09 08:06:46;;;;;;;3.20;1.42;;;18.40;51.60;;;;;;4913374;29;20044;-70
2022/12/09 08:09:13;;;;;;;2.90;1.58;;;18.40;51.40;;;;;;4912302;29;20054;-69
2022/12/09 08:11:40;;;;;;;9.07;1.40;;;18.50;51.30;;;;;;4890030;29;20056;-70
2022/12/09 08:14:09;;;;;;;5.00;1.30;;;18.60;51.10;;;;;;4908245;29;20044;-69
2022/12/09 08:16:34;;;;;;;3.92;1.20;;;18.60;51.00;;;;;;4910149;29;20040;-71
2022/12/09 08:19:00;;;;;;;3.28;1.65;;;18.60;51.00;;;;;;4894143;29;20055;-71
2022/12/09 08:21:30;;;;;;;2.00;1.25;;;18.60;51.00;;;;;;4911134;29;20067;-72
2022/12/09 08:23:59;;;;;;;2.35;1.10;;;18.60;51.00;;;;;;4893730;29;20044;-70
2022/12/09 08:26:28;;;;;;;2.08;1.10;;;18.60;51.00;;;;;;4916409;29;20053;-72
2022/12/09 08:28:54;;;;;;;3.35;1.25;;;18.60;51.00;;;;;;4907607;29;20088;-71
2022/12/09 08:31:23;;;;;;;3.10;0.93;;;18.60;51.10;;;;;;4895432;29;20048;-72
2022/12/09 08:33:49;;;;;;;;;;;18.60;51.10;;;;;;4900158;29;20481;-73
2022/12/09 08:36:20;;;;;;;1.63;1.00;;;18.60;50.90;;;;;;4894505;29;19923;-72
2022/12/09 08:38:46;;;;;;;4.25;1.25;;;18.70;51.10;;;;;;4910117;29;20063;-74
2022/12/09 08:41:14;;;;;;;3.97;1.60;;;18.70;50.80;;;;;;4908618;29;20045;-72
2022/12/09 08:43:41;;;;;;;4.22;1.40;;;18.70;50.70;;;;;;4910940;29;20043;-74
2022/12/09 08:46:06;;;;;;;4.18;1.35;;;18.70;50.50;;;;;;4894658;29;20064;-69
2022/12/09 08:48:37;;;;;;;1.70;1.40;;;18.70;50.30;;;;;;4909847;29;20047;-70
2022/12/09 08:51:03;;;;;;;4.18;1.60;;;18.70;50.10;;;;;;4888118;29;20526;-69
2022/12/09 08:53:29;;;;;;;2.72;1.80;;;18.70;50.10;;;;;;4909184;29;20080;-69
2022/12/09 08:55:55;;;;;;;4.35;1.48;;;18.70;50.10;;;;;;4909134;29;20075;-70
2022/12/09 08:58:20;;;;;;;1.73;1.35;;;18.70;49.90;;;;;;4870210;29;20044;-68
2022/12/09 09:00:46;;;;;;;3.63;1.40;;;18.70;49.90;;;;;;4920261;29;20095;-68
2022/12/09 09:03:11;;;;;;;1.80;1.10;;;18.80;49.90;;;;;;4910107;29;20055;-67
2022/12/09 09:05:37;;;;;;;5.07;1.58;;;18.80;49.90;;;;;;4908080;29;20055;-68
2022/12/09 09:08:03;;;;;;;1.95;1.10;;;18.80;49.90;;;;;;4892555;29;20056;-68
2022/12/09 09:10:29;;;;;;;1.50;1.10;;;18.80;50.10;;;;;;4894160;29;20503;-69
2022/12/09 09:12:55;;;;;;;2.75;1.42;;;18.80;50.20;;;;;;4908664;29;20051;-68
2022/12/09 09:15:21;;;;;;;1.52;0.90;;;18.80;50.30;;;;;;4890548;29;20044;-69
2022/12/09 09:17:47;;;;;;;5.03;1.08;;;18.80;50.40;;;;;;4910929;29;20055;-67
2022/12/09 09:20:13;;;;;;;1.80;0.90;;;18.90;50.50;;;;;;4906784;29;20828;-68
2022/12/09 09:22:38;;;;;;;3.00;1.15;;;18.90;50.60;;;;;;4890391;29;20036;-70
2022/12/09 09:25:04;;;;;;;2.45;1.75;;;18.80;50.40;;;;;;4896574;29;20056;-69
2022/12/09 09:27:30;;;;;;;3.42;1.40;;;18.90;50.30;;;;;;4891676;29;20044;-72
2022/12/09 09:29:55;;;;;;;3.35;1.23;;;18.90;50.30;;;;;;4893021;29;20048;-68
2022/12/09 09:32:21;;;;;;;2.67;1.30;;;18.90;50.40;;;;;;4909800;29;20075;-66
2022/12/09 09:34:49;;;;;;;3.03;1.30;;;18.90;50.40;;;;;;4892527;29;20122;-67
2022/12/09 09:37:15;;;;;;;2.07;1.17;;;18.90;50.50;;;;;;4905978;29;20052;-68
2022/12/09 09:39:41;;;;;;;2.17;1.30;;;18.90;50.50;;;;;;4915281;29;20131;-68
2022/12/09 09:42:17;;;;;;;2.88;1.42;;;18.90;50.50;;;;;;4908388;29;20127;-69
2022/12/09 09:44:47;;;;;;;2.55;1.42;;;18.90;50.50;;;;;;4907996;29;20131;-71
2022/12/09 09:47:24;;;;;;;1.98;1.30;;;18.90;50.50;;;;;;4912578;29;20047;-68
2022/12/09 09:50:00;;;;;;;1.35;1.20;;;18.90;50.60;;;;;;4890944;29;20052;-71
2022/12/09 09:52:27;;;;;;;3.85;1.67;;;18.90;50.60;;;;;;4891156;29;20115;-68
2022/12/09 09:54:53;;;;;;;1.60;1.20;;;18.90;50.60;;;;;;4907318;29;20048;-71
2022/12/09 09:57:36;;;;;;;2.05;1.17;;;18.90;50.60;;;;;;4892203;29;20456;-68
2022/12/09 10:00:19;;;;;;;1.80;1.30;;;18.90;50.50;;;;;;4908320;29;20056;-70
2022/12/09 10:03:12;;;;;;;2.45;1.40;;;18.90;50.60;;;;;;4892788;29;20071;-68
2022/12/09 10:06:08;;;;;;;3.00;1.38;;;18.90;50.50;;;;;;4908024;29;20048;-68
2022/12/09 10:08:57;;;;;;;2.17;1.67;;;18.90;50.40;;;;;;4870139;29;20071;-67
2022/12/09 10:11:57;;;;;;;9.50;1.80;;;18.90;50.00;;;;;;4887219;29;20541;-75
2022/12/09 10:14:47;;;;;;;3.28;2.00;;;18.90;50.20;;;;;;4883706;29;20409;-68
2022/12/09 10:17:32;;;;;;;3.60;1.50;;;18.90;50.20;;;;;;4886190;29;20166;-67
2022/12/09 10:20:17;;;;;;;2.83;1.63;;;18.90;50.40;;;;;;4887194;29;20059;-67
2022/12/09 10:22:52;;;;;;;4.88;1.50;;;18.90;50.50;;;;;;4871255;29;20052;-68
2022/12/09 10:25:26;;;;;;;4.65;1.60;;;18.90;50.60;;;;;;4901817;29;20096;-69
2022/12/09 10:28:00;;;;;;;2.33;1.50;;;18.90;50.70;;;;;;4884434;29;20103;-68
2022/12/09 10:30:25;;;;;;;5.43;1.58;;;18.90;50.70;;;;;;4902130;29;20179;-68
2022/12/09 10:32:52;;;;;;;4.47;1.42;;;18.90;50.70;;;;;;4884699;29;20051;-68
2022/12/09 10:35:21;;;;;;;7.72;1.45;;;19.00;50.70;;;;;;4887139;29;20199;-67
2022/12/09 10:37:48;;;;;;;3.42;1.40;;;18.90;50.70;;;;;;4881486;29;20044;-72
2022/12/09 10:40:48;;;;;;;3.38;1.65;;;18.90;50.70;;;;;;4885099;29;20135;-72
2022/12/09 10:43:35;;;;;;;4.35;1.50;;;18.90;50.70;;;;;;4884891;29;20063;-65
2022/12/09 10:46:09;;;;;;;6.53;1.77;;;18.90;50.60;;;;;;4901607;29;20139;-65
2022/12/09 10:48:46;;;;;;;2.83;1.35;;;18.90;50.60;;;;;;4902241;29;20052;-66
2022/12/09 10:51:35;;;;;;;3.25;1.38;;;18.90;50.50;;;;;;4898423;29;20134;-66
2022/12/09 10:54:09;;;;;;;1.77;1.35;;;18.90;50.70;;;;;;4902370;29;20123;-66
2022/12/09 10:56:38;;;;;;;3.28;1.40;;;18.90;50.80;;;;;;4882696;29;20040;-65
2022/12/09 10:59:12;;;;;;;3.25;1.48;;;18.90;50.80;;;;;;4904375;29;20063;-74
2022/12/09 11:02:00;;;;;;;4.00;1.30;;;18.90;50.80;;;;;;4899949;29;20044;-65
2022/12/09 11:04:31;;;;;;;4.13;1.23;;;18.90;50.90;;;;;;4903438;29;20870;-65
2022/12/09 11:07:11;;;;;;;2.88;1.58;;;18.90;51.00;;;;;;4904850;29;20051;-66
2022/12/09 11:09:39;;;;;;;4.28;2.10;;;18.90;50.90;;;;;;4887686;29;20534;-65
2022/12/09 11:12:13;;;;;;;6.45;2.10;;;18.90;50.70;;;;;;4885872;29;20094;-68
2022/12/09 11:14:47;;;;;;;3.65;1.83;;;18.90;50.60;;;;;;4885181;29;20519;-68
2022/12/09 11:17:15;;;;;;;14.57;1.80;;;18.90;50.80;;;;;;4899345;29;20475;-66
2022/12/09 11:19:43;;;;;;;4.65;1.88;;;19.00;50.80;;;;;;4904210;29;20056;-67
2022/12/09 11:22:38;;;;;;;6.90;1.50;;;18.90;50.80;;;;;;4886793;29;20044;-67
2022/12/09 11:25:24;;;;;;;6.60;2.35;;;19.00;50.90;;;;;;4903157;29;20044;-69
2022/12/09 11:27:56;;;;;;;4.63;1.70;;;19.00;51.00;;;;;;4897945;29;20112;-73
2022/12/09 11:30:28;;;;;;;5.15;1.60;;;19.00;51.00;;;;;;4885878;29;20143;-72
2022/12/09 11:33:23;;;;;;;4.05;1.63;;;19.00;51.00;;;;;;4885828;29;20059;-66
2022/12/09 11:35:54;;;;;;;1.80;1.42;;;19.00;51.00;;;;;;4881814;29;20044;-65
2022/12/09 11:38:22;;;;;;;4.80;1.75;;;19.00;51.00;;;;;;4882887;29;20171;-67
2022/12/09 11:40:58;;;;;;;7.18;1.50;;;19.00;51.10;;;;;;4905207;29;20052;-65
2022/12/09 11:43:38;;;;;;;4.60;1.75;;;19.00;51.10;;;;;;4869264;29;20139;-69
2022/12/09 11:46:35;;;;;;;5.50;1.55;;;19.00;51.10;;;;;;4906762;29;20100;-69
2022/12/09 11:49:15;;;;;;;3.67;1.50;;;19.00;51.00;;;;;;4905880;29;20052;-67
2022/12/09 11:52:00;;;;;;;4.18;1.88;;;19.00;51.60;;;;;;4887431;29;20036;-69
2022/12/09 11:54:47;;;;;;;4.07;1.65;;;19.00;50.70;;;;;;4907693;29;20063;-68
2022/12/09 11:57:37;;;;;;;2.45;1.48;;;19.00;50.60;;;;;;4900907;29;20122;-67
2022/12/09 12:00:15;;;;;;;5.35;2.10;;;18.90;50.60;;;;;;4911383;29;20044;-68
2022/12/09 12:02:47;;;;;;;2.70;1.80;;;18.90;50.70;;;;;;4889779;29;20040;-67
2022/12/09 12:05:28;;;;;;;4.13;1.63;;;18.90;50.80;;;;;;4900864;29;20528;-68
2022/12/09 12:07:56;;;;;;;4.45;1.52;;;18.90;50.90;;;;;;4883872;29;20146;-67
2022/12/09 12:10:27;;;;;;;3.78;1.60;;;18.90;51.10;;;;;;4901508;29;20056;-67
2022/12/09 12:13:08;;;;;;;3.75;1.65;;;18.90;51.20;;;;;;4900720;29;20055;-68
2022/12/09 12:15:43;;;;;;;;;;;18.90;51.20;;;;;;4905657;29;20067;-67
2022/12/09 12:18:16;;;;;;;3.40;1.70;;;18.90;51.30;;;;;;4906118;29;19930;-68
2022/12/09 12:21:18;;;;;;;2.72;1.52;;;18.90;51.40;;;;;;4887988;29;21162;-67
2022/12/09 12:24:03;;;;;;;9.18;1.95;;;18.90;51.50;;;;;;4906370;29;20048;-67
2022/12/09 12:26:43;;;;;;;4.47;1.60;;;18.90;51.50;;;;;;4905350;29;20777;-68
2022/12/09 12:29:49;;;;;;;2.50;1.95;;;18.90;51.50;;;;;;4892892;29;20075;-67
2022/12/09 12:32:43;;;;;;;3.63;1.60;;;18.90;51.60;;;;;;4897467;29;20064;-69
2022/12/09 12:35:30;;;;;;;2.33;1.80;;;18.90;51.50;;;;;;4874367;29;20075;-66
2022/12/09 12:38:15;;;;;;;4.90;2.03;;;18.90;51.50;;;;;;4906745;29;20493;-68
2022/12/09 12:40:44;;;;;;;7.22;2.25;;;18.90;51.50;;;;;;4910160;29;20048;-69
2022/12/09 12:46:31;;;;;;;6.47;2.38;;;18.90;51.10;;;;;;4911394;29;19926;-68
2022/12/09 12:49:23;;;;;;;5.25;2.53;;;18.90;50.90;;;;;;4909702;29;20044;-67
2022/12/09 12:52:16;;;;;;;4.10;2.45;;;18.80;50.60;;;;;;4885316;29;20103;-68
2022/12/09 12:55:17;;;;;;;2.75;2.08;;;18.80;50.40;;;;;;4905024;29;20107;-66
2022/12/09 12:57:43;;;;;;;6.07;2.42;;;18.80;50.20;;;;;;4912208;29;20078;-66
2022/12/09 13:00:17;;;;;;;8.98;2.47;;;18.80;50.40;;;;;;4910375;29;20072;-67
2022/12/09 13:03:04;;;;;;;4.97;2.65;;;18.80;50.30;;;;;;4899576;29;20066;-68
2022/12/09 13:05:41;;;;;;;4.17;2.30;;;18.80;50.30;;;;;;4875434;29;20047;-66
2022/12/09 13:08:18;;;;;;;4.57;2.95;;;18.80;50.40;;;;;;4909509;29;20051;-69
2022/12/09 13:10:53;;;;;;;3.97;2.67;;;18.80;50.30;;;;;;4908964;29;20129;-69